createdAt,value
2022-08-12T00:00:48.161Z,4.85
2022-08-12T00:03:34.129Z,4.75
2022-08-12T00:06:19.828Z,4.60
2022-08-12T00:09:06.670Z,5.00
2022-08-12T00:11:52.410Z,5.97
2022-08-12T00:14:38.323Z,4.18
2022-08-12T00:17:24.357Z,4.50
2022-08-12T00:20:10.142Z,4.60
2022-08-12T00:22:59.694Z,4.47
2022-08-12T00:26:21.426Z,4.15
2022-08-12T00:29:00.871Z,4.95
2022-08-12T00:31:46.657Z,4.78
2022-08-12T00:34:33.302Z,4.78
2022-08-12T00:37:19.105Z,5.32
2022-08-12T00:40:10.776Z,5.40
2022-08-12T00:42:39.442Z,3.92
2022-08-12T00:45:06.960Z,4.55
2022-08-12T00:47:34.222Z,3.85
2022-08-12T00:50:01.351Z,4.38
2022-08-12T00:52:28.514Z,5.20
2022-08-12T00:54:59.499Z,5.80
2022-08-12T00:57:31.012Z,4.80
2022-08-12T01:00:02.350Z,4.43
2022-08-12T01:02:30.677Z,4.05
2022-08-12T01:05:20.798Z,5.32
2022-08-12T01:08:06.659Z,4.85
2022-08-12T01:10:54.215Z,3.92
2022-08-12T01:13:22.121Z,4.15
2022-08-12T01:15:51.119Z,4.13
2022-08-12T01:18:19.007Z,3.95
2022-08-12T01:20:50.007Z,4.40
2022-08-12T01:23:36.296Z,7.82
2022-08-12T01:26:03.999Z,6.07
2022-08-12T01:28:31.646Z,4.72
2022-08-12T01:30:59.613Z,6.70
2022-08-12T01:33:27.986Z,6.78
2022-08-12T01:36:07.687Z,12.73
2022-08-12T01:38:35.263Z,9.73
2022-08-12T01:41:02.607Z,9.77
2022-08-12T01:43:29.806Z,10.23
2022-08-12T01:46:22.682Z,12.35
2022-08-12T01:48:50.437Z,11.18
2022-08-12T01:51:40.745Z,13.40
2022-08-12T01:54:10.775Z,16.33
2022-08-12T01:56:57.103Z,9.13
2022-08-12T01:59:56.331Z,12.48
2022-08-12T02:02:27.502Z,13.05
2022-08-12T02:05:33.157Z,19.90
2022-08-12T02:08:37.965Z,18.45
2022-08-12T02:11:17.670Z,30.42
2022-08-12T02:13:50.867Z,20.23
2022-08-12T02:16:18.164Z,42.15
2022-08-12T02:18:50.649Z,27.48
2022-08-12T02:21:17.775Z,28.88
2022-08-12T02:23:44.927Z,29.40
2022-08-12T02:26:12.058Z,23.35
2022-08-12T02:28:39.249Z,20.55
2022-08-12T02:31:07.057Z,28.95
2022-08-12T02:33:34.210Z,29.20
2022-08-12T02:36:02.490Z,24.60
2022-08-12T02:38:31.138Z,30.73
2022-08-12T02:41:02.356Z,28.48
2022-08-12T02:43:51.649Z,31.42
2022-08-12T02:46:19.621Z,100.18
2022-08-12T02:48:52.803Z,104.93
2022-08-12T02:51:20.990Z,164.25
2022-08-12T02:54:05.026Z,150.00
2022-08-12T02:56:33.790Z,139.70
2022-08-12T02:59:00.920Z,102.75
2022-08-12T03:01:35.647Z,163.13
2022-08-12T03:04:20.059Z,173.07
2022-08-12T03:06:53.140Z,155.45
2022-08-12T03:09:20.922Z,177.15
2022-08-12T03:11:59.153Z,150.52
2022-08-12T03:14:28.295Z,95.47
2022-08-12T03:16:58.747Z,57.67
2022-08-12T03:19:25.900Z,58.45
2022-08-12T03:22:09.009Z,46.67
2022-08-12T03:24:37.307Z,44.10
2022-08-12T03:27:05.854Z,36.33
2022-08-12T03:29:33.022Z,32.50
2022-08-12T03:32:34.993Z,27.63
2022-08-12T03:35:02.582Z,31.70
2022-08-12T03:37:30.393Z,30.15
2022-08-12T03:39:57.717Z,27.10
2022-08-12T03:42:32.461Z,28.00
2022-08-12T03:45:27.361Z,29.67
2022-08-12T03:48:19.079Z,21.23
2022-08-12T03:51:05.323Z,22.23
2022-08-12T03:53:51.367Z,19.73
2022-08-12T03:56:37.441Z,21.25
2022-08-12T03:59:24.045Z,21.17
2022-08-12T04:01:57.679Z,22.15
2022-08-12T04:04:35.586Z,24.35
2022-08-12T04:07:08.037Z,23.60
2022-08-12T04:09:35.400Z,21.25
2022-08-12T04:12:22.662Z,22.40
2022-08-12T04:14:53.559Z,35.88
2022-08-12T04:17:20.863Z,36.13
2022-08-12T04:19:48.283Z,34.60
2022-08-12T04:22:15.795Z,15.95
2022-08-12T04:24:44.214Z,18.98
2022-08-12T04:27:17.557Z,20.90
2022-08-12T04:30:31.436Z,15.82
2022-08-12T04:32:32.302Z,34.28
2022-08-12T04:34:59.458Z,18.00
2022-08-12T04:37:26.654Z,18.00
2022-08-12T04:39:54.402Z,15.25
2022-08-12T04:42:22.027Z,16.65
2022-08-12T04:44:49.255Z,12.85
2022-08-12T04:47:17.070Z,27.80
2022-08-12T04:49:45.186Z,19.08
2022-08-12T04:52:12.417Z,17.73
2022-08-12T04:54:39.594Z,11.68
2022-08-12T04:57:09.573Z,12.43
2022-08-12T04:59:48.085Z,10.13
2022-08-12T05:02:21.795Z,13.40
2022-08-12T05:04:50.801Z,10.52
2022-08-12T05:07:17.930Z,9.85
2022-08-12T05:10:00.362Z,9.13
2022-08-12T05:12:31.183Z,10.38
2022-08-12T05:14:59.260Z,9.43
2022-08-12T05:17:27.240Z,10.95
2022-08-12T05:19:57.169Z,8.65
2022-08-12T05:22:25.411Z,10.25
2022-08-12T05:24:52.723Z,11.63
2022-08-12T05:27:20.816Z,10.65
2022-08-12T05:30:06.503Z,9.25
2022-08-12T05:32:36.410Z,8.20
2022-08-12T05:35:06.478Z,11.38
2022-08-12T05:37:34.838Z,10.70
2022-08-12T05:40:05.654Z,11.23
2022-08-12T05:42:35.624Z,15.88
2022-08-12T05:45:02.752Z,10.18
2022-08-12T05:47:36.721Z,10.88
2022-08-12T05:50:17.177Z,8.75
2022-08-12T05:52:44.344Z,8.70
2022-08-12T05:55:11.767Z,9.20
2022-08-12T05:57:39.978Z,8.88
2022-08-12T06:00:07.555Z,8.70
2022-08-12T06:02:35.056Z,8.25
2022-08-12T06:05:02.849Z,7.38
2022-08-12T06:08:00.310Z,6.72
2022-08-12T06:10:17.825Z,8.63
2022-08-12T06:12:59.013Z,7.28
2022-08-12T06:15:26.440Z,7.13
2022-08-12T06:17:53.643Z,6.88
2022-08-12T06:20:27.695Z,7.32
2022-08-12T06:22:56.886Z,5.85
2022-08-12T06:25:29.026Z,5.30
2022-08-12T06:28:06.377Z,5.72
2022-08-12T06:30:38.323Z,6.22
2022-08-12T06:33:11.726Z,6.07
2022-08-12T06:35:50.279Z,6.00
2022-08-12T06:38:25.196Z,5.85
2022-08-12T06:41:14.979Z,7.10
2022-08-12T06:44:06.544Z,5.50
2022-08-12T06:46:30.800Z,4.80
2022-08-12T06:48:59.096Z,5.15
2022-08-12T06:51:27.110Z,5.00
2022-08-12T06:53:55.946Z,4.85
2022-08-12T06:56:34.982Z,4.05
2022-08-12T06:59:11.630Z,4.55
2022-08-12T07:01:38.759Z,4.63
2022-08-12T07:04:33.383Z,3.88
2022-08-12T07:06:55.801Z,4.93
2022-08-12T07:10:06.653Z,3.17
2022-08-12T07:12:17.085Z,5.20
2022-08-12T07:14:48.468Z,3.42
2022-08-12T07:17:16.095Z,2.95
2022-08-12T07:19:45.350Z,3.30
2022-08-12T07:22:14.084Z,4.55
2022-08-12T07:24:42.249Z,3.25
2022-08-12T07:27:09.429Z,4.13
2022-08-12T07:29:59.414Z,2.90
2022-08-12T07:32:25.628Z,3.10
2022-08-12T07:34:54.647Z,2.45
2022-08-12T07:37:22.113Z,2.63
2022-08-12T07:39:58.749Z,3.45
2022-08-12T07:42:27.960Z,4.10
2022-08-12T07:44:56.010Z,3.10
2022-08-12T07:47:23.281Z,2.85
2022-08-12T07:50:04.695Z,4.40
2022-08-12T07:52:34.481Z,3.13
2022-08-12T07:55:01.683Z,2.78
2022-08-12T07:57:28.817Z,3.22
2022-08-12T07:59:56.261Z,3.10
2022-08-12T08:02:35.992Z,3.20
2022-08-12T08:05:04.228Z,4.57
2022-08-12T08:07:31.392Z,2.60
2022-08-12T08:09:59.466Z,2.90
2022-08-12T08:12:45.944Z,2.53
2022-08-12T08:15:14.911Z,2.70
2022-08-12T08:17:42.296Z,2.30
2022-08-12T08:20:10.544Z,3.58
2022-08-12T08:22:41.760Z,6.45
2022-08-12T08:25:34.402Z,155.15
2022-08-12T08:27:56.870Z,2.90
2022-08-12T08:30:24.056Z,4.40
2022-08-12T08:32:51.181Z,2.35
2022-08-12T08:35:19.826Z,3.13
2022-08-12T08:37:51.430Z,4.97
2022-08-12T08:40:37.887Z,2.25
2022-08-12T08:43:07.219Z,2.53
2022-08-12T08:45:34.434Z,2.58
2022-08-12T08:48:02.367Z,2.70
2022-08-12T08:50:29.576Z,4.57
2022-08-12T08:52:56.752Z,2.40
2022-08-12T08:55:37.445Z,3.50
2022-08-12T08:58:11.591Z,4.07
2022-08-12T09:00:39.441Z,2.50
2022-08-12T09:04:21.496Z,9.32
2022-08-12T09:06:02.247Z,3.22
2022-08-12T09:08:30.217Z,3.28
2022-08-12T09:12:06.866Z,3.13
2022-08-12T09:16:55.099Z,2.70
2022-08-12T09:19:27.111Z,2.60
2022-08-12T09:21:55.530Z,2.63
2022-08-12T09:24:22.792Z,5.85
2022-08-12T09:26:55.092Z,6.28
2022-08-12T09:30:10.472Z,4.75
2022-08-12T09:32:11.725Z,4.85
2022-08-12T09:34:57.513Z,3.63
2022-08-12T09:37:26.583Z,2.78
2022-08-12T09:40:07.932Z,3.97
2022-08-12T09:43:16.905Z,2.78
2022-08-12T09:46:19.338Z,9.90
2022-08-12T09:48:40.064Z,3.15
2022-08-12T09:51:21.881Z,2.80
2022-08-12T09:54:05.597Z,3.15
2022-08-12T09:57:02.706Z,3.05
2022-08-12T10:00:16.849Z,3.08
2022-08-12T10:02:44.332Z,3.22
2022-08-12T10:04:59.560Z,3.55
2022-08-12T10:07:33.086Z,3.50
2022-08-12T10:10:08.137Z,2.63
2022-08-12T10:13:10.629Z,2.45
2022-08-12T10:16:02.457Z,3.28
2022-08-12T10:18:26.574Z,2.40
2022-08-12T10:20:53.845Z,2.30
2022-08-12T10:23:21.003Z,2.95
2022-08-12T10:26:37.976Z,1.98
2022-08-12T10:30:38.109Z,2.30
2022-08-12T10:32:44.511Z,2.00
2022-08-12T10:35:07.713Z,2.03
2022-08-12T10:38:34.602Z,2.22
2022-08-12T10:40:28.506Z,2.42
2022-08-12T10:43:17.676Z,2.78
2022-08-12T10:45:49.572Z,1.90
2022-08-12T10:48:21.167Z,2.08
2022-08-12T10:50:58.480Z,2.33
2022-08-12T10:53:44.087Z,3.83
2022-08-12T10:56:16.536Z,2.22
2022-08-12T10:58:46.207Z,4.05
2022-08-12T11:03:01.553Z,2.28
2022-08-12T11:04:24.685Z,4.75
2022-08-12T11:07:05.152Z,2.08
2022-08-12T11:09:55.554Z,2.40
2022-08-12T11:12:57.083Z,2.70
2022-08-12T11:15:19.351Z,2.30
2022-08-12T11:17:53.973Z,3.38
2022-08-12T11:20:24.495Z,4.60
2022-08-12T11:22:59.519Z,2.22
2022-08-12T11:25:36.008Z,2.55
2022-08-12T11:28:14.930Z,2.42
2022-08-12T11:30:43.355Z,3.42
2022-08-12T11:33:12.098Z,3.03
2022-08-12T11:35:54.036Z,2.80
2022-08-12T11:38:24.828Z,80.97
2022-08-12T11:40:52.142Z,3.80
2022-08-12T11:43:20.530Z,2.83
2022-08-12T11:45:53.341Z,2.80
2022-08-12T11:48:27.179Z,3.97
2022-08-12T11:50:54.701Z,2.75
2022-08-12T11:53:59.238Z,2.75
2022-08-12T11:56:11.293Z,2.47
2022-08-12T12:01:58.560Z,2.90
2022-08-12T12:02:01.207Z,2.75
2022-08-12T12:04:13.056Z,3.25
2022-08-12T12:06:56.580Z,3.17
2022-08-12T12:09:53.129Z,4.22
2022-08-12T12:12:21.453Z,3.05
2022-08-12T12:14:54.837Z,2.65
2022-08-12T12:17:23.418Z,2.53
2022-08-12T12:19:50.617Z,2.85
2022-08-12T12:22:26.796Z,3.28
2022-08-12T12:24:58.092Z,2.85
2022-08-12T12:28:03.680Z,3.00
2022-08-12T12:30:19.553Z,2.90
2022-08-12T12:32:56.640Z,3.17
2022-08-12T12:36:05.870Z,2.92
2022-08-12T12:38:12.050Z,2.55
2022-08-12T12:40:40.657Z,3.13
2022-08-12T12:43:08.106Z,2.63
2022-08-12T12:45:35.941Z,2.50
2022-08-12T12:48:04.099Z,2.17
2022-08-12T12:50:35.806Z,2.35
2022-08-12T12:53:10.108Z,3.00
2022-08-12T12:55:57.230Z,3.08
2022-08-12T12:58:26.192Z,2.50
2022-08-12T13:01:04.905Z,2.50
2022-08-12T13:03:52.823Z,2.00
2022-08-12T13:06:25.392Z,2.50
2022-08-12T13:08:57.654Z,3.25
2022-08-12T13:11:35.447Z,2.65
2022-08-12T13:14:13.043Z,2.30
2022-08-12T13:16:56.522Z,2.53
2022-08-12T13:19:37.721Z,2.95
2022-08-12T13:22:18.184Z,2.72
2022-08-12T13:24:45.879Z,2.83
2022-08-12T13:27:20.680Z,2.30
2022-08-12T13:29:48.940Z,2.30
2022-08-12T13:32:28.228Z,2.30
2022-08-12T13:35:19.336Z,1.98
2022-08-12T13:37:55.640Z,5.05
2022-08-12T13:40:33.650Z,3.47
2022-08-12T13:43:01.908Z,2.50
2022-08-12T13:45:30.300Z,2.33
2022-08-12T13:47:58.195Z,2.50
2022-08-12T13:50:32.618Z,2.40
2022-08-12T13:53:23.021Z,2.78
2022-08-12T13:55:49.780Z,2.67
2022-08-12T13:58:27.449Z,1.92
2022-08-12T14:00:56.702Z,2.30
2022-08-12T14:03:28.614Z,2.60
2022-08-12T14:06:15.527Z,1.98
2022-08-12T14:08:43.046Z,2.22
2022-08-12T14:11:12.476Z,2.42
2022-08-12T14:14:03.856Z,2.25
2022-08-12T14:16:37.655Z,4.10
2022-08-12T14:19:22.821Z,3.10
2022-08-12T14:22:00.755Z,5.95
2022-08-12T14:24:40.793Z,2.75
2022-08-12T14:27:09.299Z,3.60
2022-08-12T14:30:06.067Z,3.40
2022-08-12T14:32:26.685Z,3.20
2022-08-12T14:34:56.443Z,3.10
2022-08-12T14:37:57.165Z,2.47
2022-08-12T14:40:18.391Z,2.85
2022-08-12T14:42:46.899Z,3.15
2022-08-12T14:45:14.299Z,3.20
2022-08-12T14:47:58.280Z,3.60
2022-08-12T14:50:58.644Z,3.65
2022-08-12T14:59:23.295Z,4.15
2022-08-12T15:01:51.069Z,4.43
2022-08-12T15:04:28.598Z,3.88
2022-08-12T15:06:56.341Z,3.47
2022-08-12T15:09:29.214Z,5.22
2022-08-12T15:12:04.087Z,4.13
2022-08-12T15:14:31.734Z,5.80
2022-08-12T15:17:00.301Z,9.20
2022-08-12T15:20:11.785Z,5.10
2022-08-12T15:22:35.545Z,4.50
2022-08-12T15:25:07.210Z,5.88
2022-08-12T15:28:05.537Z,5.10
2022-08-12T15:30:24.728Z,5.55
2022-08-12T15:32:53.554Z,4.63
2022-08-12T15:35:24.361Z,4.50
2022-08-12T15:38:09.388Z,4.90
2022-08-12T15:40:38.507Z,5.30
2022-08-12T15:43:35.369Z,5.20
2022-08-12T15:46:03.030Z,5.93
2022-08-12T15:48:32.879Z,6.82
2022-08-12T15:51:01.409Z,5.10
2022-08-12T15:53:51.275Z,4.47
2022-08-12T15:56:29.452Z,6.10
2022-08-12T15:58:59.272Z,5.57
2022-08-12T16:01:28.781Z,3.58
2022-08-12T16:04:02.957Z,4.65
2022-08-12T16:09:56.637Z,3.83
2022-08-12T16:12:12.316Z,3.33
2022-08-12T16:14:41.893Z,3.90
2022-08-12T16:17:14.781Z,6.18
2022-08-12T16:20:03.083Z,4.20
2022-08-12T16:22:30.038Z,3.78
2022-08-12T16:24:57.207Z,3.85
2022-08-12T16:27:25.546Z,4.22
2022-08-12T16:29:57.544Z,3.97
2022-08-12T16:32:31.497Z,4.20
2022-08-12T16:34:59.958Z,4.15
2022-08-12T16:37:32.622Z,6.43
2022-08-12T16:40:14.655Z,11.45
2022-08-12T16:42:53.242Z,8.05
2022-08-12T16:45:32.145Z,5.88
2022-08-12T16:48:34.221Z,7.53
2022-08-12T16:51:04.886Z,6.18
2022-08-12T16:53:43.812Z,5.18
2022-08-12T16:56:12.578Z,6.85
2022-08-12T16:58:40.682Z,5.82
2022-08-12T17:01:11.981Z,6.45
2022-08-12T17:03:51.973Z,9.55
2022-08-12T17:06:22.663Z,7.55
2022-08-12T17:09:02.611Z,8.75
2022-08-12T17:11:32.971Z,6.07
2022-08-12T17:14:01.561Z,6.68
2022-08-12T17:16:30.117Z,5.47
2022-08-12T17:18:59.855Z,6.03
2022-08-12T17:21:41.351Z,6.22
2022-08-12T17:24:30.470Z,6.07
2022-08-12T17:26:58.569Z,5.57
2022-08-12T17:30:01.399Z,6.03
2022-08-12T17:32:14.499Z,10.05
2022-08-12T17:35:00.592Z,7.72
2022-08-12T17:37:28.000Z,7.28
2022-08-12T17:40:15.931Z,8.95
2022-08-12T17:42:47.353Z,6.95
2022-08-12T17:45:19.335Z,13.20
2022-08-12T17:48:02.319Z,15.68
2022-08-12T17:50:35.863Z,9.18
2022-08-12T17:53:03.970Z,8.02
2022-08-12T17:55:44.083Z,8.10
2022-08-12T17:58:16.368Z,7.22
2022-08-12T18:00:45.188Z,6.90
2022-08-12T18:04:04.521Z,7.32
2022-08-12T18:06:08.453Z,7.22
2022-08-12T18:08:36.083Z,32.55
2022-08-12T18:12:03.019Z,11.32
2022-08-12T18:14:09.384Z,12.02
2022-08-12T18:16:41.263Z,11.60
2022-08-12T18:19:08.788Z,13.35
2022-08-12T18:22:02.238Z,16.88
2022-08-12T18:24:29.393Z,16.58
2022-08-12T18:26:57.012Z,15.75
2022-08-12T18:29:27.241Z,20.48
2022-08-12T18:32:44.096Z,18.35
2022-08-12T18:34:58.303Z,21.42
2022-08-12T18:37:41.770Z,27.48
2022-08-12T18:40:28.582Z,20.88
2022-08-12T18:42:59.235Z,16.83
2022-08-12T18:45:27.504Z,17.85
2022-08-12T18:48:01.494Z,18.02
2022-08-12T18:50:49.030Z,23.73
2022-08-12T18:54:05.634Z,19.23
2022-08-12T18:56:04.497Z,17.60
2022-08-12T18:58:33.573Z,20.63
2022-08-12T19:01:02.042Z,26.27
2022-08-12T19:03:38.855Z,22.00
2022-08-12T19:06:07.582Z,21.27
2022-08-12T19:08:47.132Z,23.00
2022-08-12T19:11:32.918Z,26.25
2022-08-12T19:14:21.454Z,18.92
2022-08-12T19:16:54.898Z,15.10
2022-08-12T19:19:25.071Z,14.02
2022-08-12T19:21:56.982Z,14.48
2022-08-12T19:24:44.082Z,13.90
2022-08-12T19:27:15.421Z,13.82
2022-08-12T19:29:44.532Z,13.45
2022-08-12T19:32:31.497Z,13.18
2022-08-12T19:38:06.462Z,12.70
2022-08-12T19:40:34.627Z,13.77
2022-08-12T19:43:19.072Z,13.95
2022-08-12T19:45:50.348Z,14.60
2022-08-12T19:48:18.868Z,15.70
2022-08-12T19:50:50.612Z,16.08
2022-08-12T19:53:19.393Z,16.35
2022-08-12T19:55:51.772Z,15.35
2022-08-12T19:58:20.278Z,16.85
2022-08-12T20:00:52.545Z,15.05
2022-08-12T20:03:39.525Z,15.15
2022-08-12T20:06:14.011Z,14.85
2022-08-12T20:08:49.366Z,16.02
2022-08-12T20:12:15.240Z,15.10
2022-08-12T20:14:11.287Z,16.40
2022-08-12T20:16:52.684Z,16.23
2022-08-12T20:19:23.371Z,18.20
2022-08-12T20:21:50.935Z,16.08
2022-08-12T20:24:19.288Z,18.00
2022-08-12T20:26:46.709Z,17.30
2022-08-12T20:29:16.727Z,15.63
2022-08-12T20:31:44.395Z,15.93
2022-08-12T20:34:12.096Z,15.25
2022-08-12T20:36:44.730Z,15.15
2022-08-12T20:39:34.247Z,15.77
2022-08-12T20:42:01.752Z,15.27
2022-08-12T20:44:34.316Z,13.95
2022-08-12T20:47:16.600Z,14.25
2022-08-12T20:49:46.940Z,13.68
2022-08-12T20:52:25.302Z,13.20
2022-08-12T20:54:53.036Z,13.45
2022-08-12T20:57:22.031Z,13.48
2022-08-12T20:59:50.402Z,12.95
2022-08-12T21:02:18.479Z,13.38
2022-08-12T21:05:16.404Z,14.27
2022-08-12T21:07:52.215Z,14.00
2022-08-12T21:10:20.812Z,14.15
2022-08-12T21:12:48.487Z,15.13
2022-08-12T21:15:24.102Z,14.05
2022-08-12T21:18:11.006Z,15.18
2022-08-12T21:20:50.664Z,14.00
2022-08-12T21:23:21.187Z,15.27
2022-08-12T21:25:51.021Z,14.23
2022-08-12T21:28:20.681Z,14.45
2022-08-12T21:31:11.360Z,14.75
2022-08-12T21:33:58.688Z,15.27
2022-08-12T21:36:34.322Z,14.88
2022-08-12T21:39:20.421Z,13.68
2022-08-12T21:41:52.439Z,16.08
2022-08-12T21:45:44.040Z,19.70
2022-08-12T21:47:20.776Z,51.70
2022-08-12T21:49:55.639Z,30.90
2022-08-12T21:52:30.413Z,27.40
2022-08-12T21:55:02.177Z,25.73
2022-08-12T21:57:36.249Z,22.23
2022-08-12T22:00:17.026Z,25.67
2022-08-12T22:03:03.444Z,24.75
2022-08-12T22:05:49.289Z,23.27
2022-08-12T22:08:22.078Z,30.13
2022-08-12T22:10:52.214Z,58.20
2022-08-12T22:14:07.659Z,62.17
2022-08-12T22:16:07.275Z,38.92
2022-08-12T22:18:34.390Z,25.35
2022-08-12T22:21:01.540Z,59.00
2022-08-12T22:23:51.881Z,25.80
2022-08-12T22:26:15.966Z,22.92
2022-08-12T22:29:14.626Z,22.25
2022-08-12T22:31:44.424Z,23.20
2022-08-12T22:34:18.198Z,19.73
2022-08-12T22:36:45.655Z,18.50
2022-08-12T22:39:15.969Z,17.60
2022-08-12T22:42:02.261Z,18.02
2022-08-12T22:44:54.974Z,18.67
2022-08-12T22:47:53.961Z,18.23
2022-08-12T22:50:27.714Z,18.77
2022-08-12T22:53:16.975Z,18.55
2022-08-12T22:55:59.907Z,17.90
2022-08-12T22:58:33.540Z,18.48
2022-08-12T23:01:01.743Z,18.33
2022-08-12T23:03:49.620Z,18.60
2022-08-12T23:06:23.158Z,33.42
2022-08-12T23:08:50.806Z,72.13
2022-08-12T23:11:23.558Z,32.13
2022-08-12T23:13:56.051Z,30.60
2022-08-12T23:16:29.096Z,38.05
2022-08-12T23:19:01.390Z,32.05
2022-08-12T23:22:03.736Z,31.95
2022-08-12T23:24:23.619Z,29.48
2022-08-12T23:27:11.922Z,27.30
2022-08-12T23:29:43.250Z,21.70
2022-08-12T23:32:36.650Z,20.33
2022-08-12T23:35:04.665Z,21.38
2022-08-12T23:37:47.354Z,20.42
2022-08-12T23:40:22.000Z,19.83
2022-08-12T23:42:50.174Z,17.33
2022-08-12T23:45:20.939Z,17.80
2022-08-12T23:47:59.846Z,17.10
2022-08-12T23:50:33.944Z,50.05
2022-08-12T23:53:05.688Z,23.30
2022-08-12T23:55:35.914Z,24.33
2022-08-12T23:58:18.497Z,20.58
